Time;durP1;ratioP1;P1;durP2;ratioP2;P2;SDS_P1;SDS_P2;PMS_P1;PMS_P2;Temp;Humidity;BMP_temperature;BMP_pressure;BME280_temperature;BME280_humidity;BME280_pressure;Samples;Min_cycle;Max_cycle;Signal;HPM_P1;HPM_P2
2022/03/01 00:02:01;;;;;;;4.88;2.80;;;;;;;;;;5067156;28;20024;-53
2022/03/01 00:04:27;;;;;;;4.18;2.65;;;;;;;;;;5068457;28;20492;-52
2022/03/01 00:06:54;;;;;;;5.07;2.33;;;;;;;;;;5068758;28;20028;-50
2022/03/01 00:09:21;;;;;;;3.20;2.20;;;;;;;;;;5064878;28;20071;-52
2022/03/01 00:11:47;;;;;;;3.83;2.33;;;;;;;;;;5067247;28;20021;-52
2022/03/01 00:14:13;;;;;;;3.42;2.50;;;;;;;;;;5068586;28;20058;-52
2022/03/01 00:16:39;;;;;;;3.63;2.25;;;;;;;;;;5066198;28;20027;-53
2022/03/01 00:19:05;;;;;;;3.35;2.22;;;;;;;;;;5068406;28;20033;-53
2022/03/01 00:21:31;;;;;;;3.70;2.25;;;;;;;;;;5067901;28;20431;-53
2022/03/01 00:23:59;;;;;;;3.35;2.15;;;;;;;;;;5068470;28;20032;-52
2022/03/01 00:26:25;;;;;;;5.65;2.60;;;;;;;;;;5067622;28;20016;-52
2022/03/01 00:28:52;;;;;;;4.35;2.63;;;;;;;;;;5068340;28;20411;-54
2022/03/01 00:31:19;;;;;;;4.97;2.70;;;;;;;;;;5065873;28;20024;-53
2022/03/01 00:33:47;;;;;;;5.25;2.70;;;;;;;;;;5068205;28;20570;-53
2022/03/01 00:36:13;;;;;;;5.55;3.08;;;;;;;;;;5066974;28;20407;-53
2022/03/01 00:38:40;;;;;;;3.45;2.45;;;;;;;;;;5066129;28;20028;-53
2022/03/01 00:41:06;;;;;;;5.68;2.92;;;;;;;;;;5067816;28;20079;-53
2022/03/01 00:43:33;;;;;;;5.10;3.45;;;;;;;;;;5067775;28;20025;-53
2022/03/01 00:46:00;;;;;;;6.20;3.17;;;;;;;;;;5061383;28;20021;-53
2022/03/01 00:48:27;;;;;;;6.13;3.38;;;;;;;;;;5067741;28;20040;-52
2022/03/01 00:50:54;;;;;;;5.68;3.53;;;;;;;;;;5049866;28;20032;-52
2022/03/01 00:53:20;;;;;;;5.13;3.17;;;;;;;;;;5065221;28;20032;-54
2022/03/01 00:55:46;;;;;;;7.10;3.42;;;;;;;;;;5058207;28;20032;-53
2022/03/01 00:58:12;;;;;;;5.15;3.22;;;;;;;;;;5068592;28;20553;-53
2022/03/01 01:00:38;;;;;;;6.05;3.70;;;;;;;;;;5068931;28;20403;-53
2022/03/01 01:03:04;;;;;;;6.32;3.97;;;;;;;;;;5064721;28;20029;-53
2022/03/01 01:05:31;;;;;;;7.60;3.80;;;;;;;;;;5048353;28;20029;-53
2022/03/01 01:07:59;;;;;;;6.97;3.92;;;;;;;;;;5047950;28;20578;-53
2022/03/01 01:10:25;;;;;;;6.95;4.00;;;;;;;;;;5059863;28;20050;-53
2022/03/01 01:12:51;;;;;;;6.75;3.55;;;;;;;;;;5068047;28;20048;-53
2022/03/01 01:15:18;;;;;;;4.93;3.45;;;;;;;;;;5067673;28;20028;-53
2022/03/01 01:17:45;;;;;;;4.30;2.58;;;;;;;;;;5067888;28;20049;-53
2022/03/01 01:20:11;;;;;;;5.07;3.13;;;;;;;;;;5067876;28;20120;-53
2022/03/01 01:22:41;;;;;;;7.07;3.70;;;;;;;;;;5067084;28;20025;-53
2022/03/01 01:25:10;;;;;;;6.88;3.25;;;;;;;;;;5059463;28;20495;-53
2022/03/01 01:27:38;;;;;;;5.47;3.13;;;;;;;;;;5047480;28;20500;-53
2022/03/01 01:30:05;;;;;;;5.53;3.33;;;;;;;;;;5047636;28;20025;-52
2022/03/01 01:32:31;;;;;;;5.53;3.03;;;;;;;;;;5053812;28;20057;-53
2022/03/01 01:34:58;;;;;;;5.15;3.25;;;;;;;;;;5067400;28;20692;-54
2022/03/01 01:37:24;;;;;;;5.75;3.22;;;;;;;;;;5067181;28;20040;-53
2022/03/01 01:39:50;;;;;;;3.83;2.47;;;;;;;;;;5065483;28;20034;-53
2022/03/01 01:42:16;;;;;;;6.15;2.95;;;;;;;;;;5065507;28;20389;-54
2022/03/01 01:44:43;;;;;;;5.80;2.97;;;;;;;;;;5067354;28;20519;-53
2022/03/01 01:47:09;;;;;;;5.50;2.90;;;;;;;;;;5067072;28;20032;-54
2022/03/01 01:49:35;;;;;;;5.35;2.85;;;;;;;;;;5066574;28;20111;-53
2022/03/01 01:52:02;;;;;;;6.53;3.25;;;;;;;;;;5067032;28;20163;-55
2022/03/01 01:54:28;;;;;;;4.18;2.78;;;;;;;;;;5065223;28;20028;-54
2022/03/01 01:56:55;;;;;;;5.15;3.10;;;;;;;;;;5066796;28;20085;-54
2022/03/01 01:59:21;;;;;;;5.82;2.97;;;;;;;;;;5066673;28;20573;-53
2022/03/01 02:01:47;;;;;;;4.32;2.70;;;;;;;;;;5066987;28;20059;-54
2022/03/01 02:04:13;;;;;;;4.60;2.67;;;;;;;;;;5067298;28;20031;-54
2022/03/01 02:06:52;;;;;;;6.75;2.50;;;;;;;;;;5066834;28;20021;-54
2022/03/01 02:09:18;;;;;;;5.28;2.92;;;;;;;;;;5062974;28;20039;-52
2022/03/01 02:11:44;;;;;;;5.65;2.78;;;;;;;;;;5066874;28;20059;-53
2022/03/01 02:14:10;;;;;;;4.68;2.80;;;;;;;;;;5066987;28;20039;-53
2022/03/01 02:16:37;;;;;;;4.00;2.50;;;;;;;;;;5064899;28;20025;-55
2022/03/01 02:19:05;;;;;;;6.53;2.80;;;;;;;;;;5066643;28;20032;-53
2022/03/01 02:21:31;;;;;;;5.80;2.90;;;;;;;;;;5056766;28;20108;-54
2022/03/01 02:23:57;;;;;;;5.32;3.03;;;;;;;;;;5046453;28;20195;-53
2022/03/01 02:26:23;;;;;;;5.13;2.90;;;;;;;;;;5046353;28;20025;-53
2022/03/01 02:28:49;;;;;;;4.32;2.53;;;;;;;;;;5047016;28;20036;-53
2022/03/01 02:31:15;;;;;;;4.93;2.60;;;;;;;;;;5066185;28;20063;-54
2022/03/01 02:33:41;;;;;;;5.32;2.72;;;;;;;;;;5066859;28;20549;-54
2022/03/01 02:36:08;;;;;;;5.10;2.75;;;;;;;;;;5064767;28;20029;-54
2022/03/01 02:38:34;;;;;;;5.05;3.00;;;;;;;;;;5066188;28;20087;-54
2022/03/01 02:41:01;;;;;;;4.65;2.50;;;;;;;;;;5066224;28;20060;-54
2022/03/01 02:43:27;;;;;;;6.55;2.95;;;;;;;;;;5064512;28;20028;-53
2022/03/01 02:45:55;;;;;;;5.93;2.83;;;;;;;;;;5064886;28;20058;-53
2022/03/01 02:48:21;;;;;;;4.88;3.00;;;;;;;;;;5066258;28;20027;-53
2022/03/01 02:50:48;;;;;;;5.47;2.92;;;;;;;;;;5066414;28;20028;-53
2022/03/01 02:53:14;;;;;;;4.28;2.67;;;;;;;;;;5066279;28;20419;-52
2022/03/01 02:55:41;;;;;;;6.38;3.78;;;;;;;;;;5064611;28;20032;-53
2022/03/01 02:58:07;;;;;;;6.35;3.50;;;;;;;;;;5066340;28;20395;-53
2022/03/01 03:00:34;;;;;;;6.07;3.33;;;;;;;;;;5069751;28;20024;-54
2022/03/01 03:03:00;;;;;;;6.22;3.45;;;;;;;;;;5070497;28;20024;-54
2022/03/01 03:05:26;;;;;;;6.03;3.30;;;;;;;;;;5069312;28;20475;-53
2022/03/01 03:07:52;;;;;;;4.05;2.58;;;;;;;;;;5064092;28;20622;-54
2022/03/01 03:10:18;;;;;;;4.18;2.67;;;;;;;;;;5069933;28;20130;-53
2022/03/01 03:12:44;;;;;;;5.43;2.95;;;;;;;;;;5070439;28;20054;-54
2022/03/01 03:15:10;;;;;;;6.47;3.28;;;;;;;;;;5070476;28;20034;-53
2022/03/01 03:17:37;;;;;;;5.88;2.90;;;;;;;;;;5066237;28;20067;-54
2022/03/01 03:20:04;;;;;;;4.90;2.60;;;;;;;;;;5070189;28;20028;-54
2022/03/01 03:22:30;;;;;;;5.22;2.67;;;;;;;;;;5069825;28;20044;-53
2022/03/01 03:24:56;;;;;;;4.68;2.70;;;;;;;;;;5070008;28;20480;-53
2022/03/01 03:27:22;;;;;;;4.45;2.38;;;;;;;;;;5068218;28;20396;-53
2022/03/01 03:29:48;;;;;;;6.03;3.03;;;;;;;;;;5069649;28;20029;-54
2022/03/01 03:32:14;;;;;;;3.55;2.45;;;;;;;;;;5070171;28;20502;-53
2022/03/01 03:34:41;;;;;;;3.70;2.42;;;;;;;;;;5068494;28;20036;-53
2022/03/01 03:37:07;;;;;;;3.90;2.70;;;;;;;;;;5067579;28;20032;-54
2022/03/01 03:39:34;;;;;;;4.63;2.83;;;;;;;;;;5069116;28;20597;-54
2022/03/01 03:42:01;;;;;;;7.38;3.33;;;;;;;;;;5063638;28;20114;-54
2022/03/01 03:44:27;;;;;;;4.35;2.80;;;;;;;;;;5069243;28;20031;-53
2022/03/01 03:46:53;;;;;;;5.68;2.88;;;;;;;;;;5067642;28;20020;-54
2022/03/01 03:49:19;;;;;;;4.90;2.60;;;;;;;;;;5069189;28;20041;-52
2022/03/01 03:51:46;;;;;;;4.43;2.65;;;;;;;;;;5069149;28;20496;-53
2022/03/01 03:54:13;;;;;;;6.90;2.60;;;;;;;;;;5063015;28;20025;-54
2022/03/01 03:56:40;;;;;;;3.88;2.60;;;;;;;;;;5067545;28;20064;-52
2022/03/01 03:59:07;;;;;;;6.03;3.33;;;;;;;;;;5067946;28;20480;-53
2022/03/01 04:01:33;;;;;;;5.53;2.70;;;;;;;;;;5068915;28;20025;-53
2022/03/01 04:04:00;;;;;;;4.63;3.17;;;;;;;;;;5067337;28;20060;-53
2022/03/01 04:06:28;;;;;;;5.28;3.00;;;;;;;;;;5068728;28;20400;-53
2022/03/01 04:08:54;;;;;;;5.93;2.75;;;;;;;;;;5069158;28;20039;-54
2022/03/01 04:11:20;;;;;;;3.67;2.38;;;;;;;;;;5068488;28;20021;-51
2022/03/01 04:13:47;;;;;;;6.18;3.38;;;;;;;;;;5067256;28;20079;-53
2022/03/01 04:16:13;;;;;;;4.28;2.78;;;;;;;;;;5069245;28;20032;-54
2022/03/01 04:18:39;;;;;;;3.67;2.55;;;;;;;;;;5067161;28;20063;-53
2022/03/01 04:21:05;;;;;;;4.43;2.70;;;;;;;;;;5069088;28;20191;-53
2022/03/01 04:23:32;;;;;;;4.07;2.70;;;;;;;;;;5066512;28;20036;-53
2022/03/01 04:25:58;;;;;;;4.22;2.72;;;;;;;;;;5068534;28;20107;-54
2022/03/01 04:28:24;;;;;;;5.93;3.05;;;;;;;;;;5064550;28;20525;-54
2022/03/01 04:30:50;;;;;;;5.15;3.00;;;;;;;;;;5070223;28;20672;-52
2022/03/01 04:33:16;;;;;;;5.13;3.10;;;;;;;;;;5069957;28;20445;-55
2022/03/01 04:35:42;;;;;;;4.70;2.45;;;;;;;;;;5070790;28;20609;-54
2022/03/01 04:38:08;;;;;;;4.15;2.67;;;;;;;;;;5053625;28;20392;-54
2022/03/01 04:40:34;;;;;;;5.30;2.97;;;;;;;;;;5063942;28;20031;-54
2022/03/01 04:43:00;;;;;;;6.05;2.83;;;;;;;;;;5070150;28;20090;-54
2022/03/01 04:45:26;;;;;;;4.13;2.75;;;;;;;;;;5069771;28;20065;-54
2022/03/01 04:47:52;;;;;;;4.65;3.00;;;;;;;;;;5054730;28;20424;-54
2022/03/01 04:50:18;;;;;;;3.92;2.80;;;;;;;;;;5061998;28;20089;-53
2022/03/01 04:52:45;;;;;;;5.18;2.50;;;;;;;;;;5050072;28;20408;-54
2022/03/01 04:55:11;;;;;;;5.70;3.13;;;;;;;;;;5057377;28;20086;-54
2022/03/01 04:57:37;;;;;;;4.90;2.85;;;;;;;;;;5067817;28;20040;-55
2022/03/01 05:00:10;;;;;;;4.57;2.90;;;;;;;;;;5068739;28;20028;-54
2022/03/01 05:02:37;;;;;;;6.55;3.50;;;;;;;;;;5069529;28;20020;-53
2022/03/01 05:05:03;;;;;;;6.03;3.60;;;;;;;;;;5069433;28;20078;-54
2022/03/01 05:07:29;;;;;;;7.68;3.72;;;;;;;;;;5049759;28;20492;-53
2022/03/01 05:09:55;;;;;;;6.05;3.40;;;;;;;;;;5060567;28;20058;-54
2022/03/01 05:12:21;;;;;;;5.43;3.58;;;;;;;;;;5054030;28;20024;-54
2022/03/01 05:14:47;;;;;;;5.55;2.78;;;;;;;;;;5051562;28;20048;-54
2022/03/01 05:17:13;;;;;;;5.43;3.22;;;;;;;;;;5054569;28;20098;-54
2022/03/01 05:19:39;;;;;;;6.05;2.97;;;;;;;;;;5048644;28;20056;-55
2022/03/01 05:22:06;;;;;;;7.03;3.63;;;;;;;;;;5047310;28;20110;-54
2022/03/01 05:24:32;;;;;;;6.03;3.17;;;;;;;;;;5047957;28;20455;-52
2022/03/01 05:26:59;;;;;;;6.78;3.90;;;;;;;;;;5053524;28;20055;-54
2022/03/01 05:29:25;;;;;;;7.68;4.45;;;;;;;;;;5067513;28;20028;-54
2022/03/01 05:31:52;;;;;;;5.75;3.75;;;;;;;;;;5048931;28;20029;-53
2022/03/01 05:34:18;;;;;;;7.65;4.15;;;;;;;;;;5049012;28;20469;-54
2022/03/01 05:36:45;;;;;;;7.72;4.30;;;;;;;;;;5059283;28;20547;-55
2022/03/01 05:39:11;;;;;;;6.93;4.32;;;;;;;;;;5063155;28;20523;-55
2022/03/01 05:41:38;;;;;;;8.05;4.43;;;;;;;;;;5068239;28;20024;-55
2022/03/01 05:44:05;;;;;;;6.75;4.13;;;;;;;;;;5061890;28;20021;-53
2022/03/01 05:46:31;;;;;;;9.25;4.00;;;;;;;;;;5067606;28;20037;-53
2022/03/01 05:48:57;;;;;;;7.43;4.38;;;;;;;;;;5064457;28;20032;-53
2022/03/01 05:51:23;;;;;;;6.78;4.43;;;;;;;;;;5068081;28;20052;-54
2022/03/01 05:53:53;;;;;;;6.55;4.05;;;;;;;;;;5068429;28;20056;-54
2022/03/01 05:56:19;;;;;;;9.85;4.30;;;;;;;;;;5068125;28;20032;-54
2022/03/01 05:58:45;;;;;;;8.52;4.45;;;;;;;;;;5062733;28;20090;-53
2022/03/01 06:01:12;;;;;;;5.65;3.47;;;;;;;;;;5060181;28;20033;-53
2022/03/01 06:03:38;;;;;;;6.28;3.50;;;;;;;;;;5063758;28;20520;-54
2022/03/01 06:06:05;;;;;;;5.45;3.78;;;;;;;;;;5054091;28;20067;-54
2022/03/01 06:08:32;;;;;;;5.50;3.72;;;;;;;;;;5065530;28;20399;-52
2022/03/01 06:10:59;;;;;;;7.75;4.10;;;;;;;;;;5066464;28;20034;-53
2022/03/01 06:13:25;;;;;;;5.40;3.72;;;;;;;;;;5050261;28;20095;-53
2022/03/01 06:15:51;;;;;;;6.05;3.60;;;;;;;;;;5048067;28;20480;-54
2022/03/01 06:18:17;;;;;;;6.32;3.40;;;;;;;;;;5058488;28;20039;-54
2022/03/01 06:20:44;;;;;;;6.85;3.47;;;;;;;;;;5068159;28;20407;-54
2022/03/01 06:23:11;;;;;;;5.70;3.05;;;;;;;;;;5060825;28;20488;-54
2022/03/01 06:25:37;;;;;;;6.65;3.88;;;;;;;;;;5047088;28;20459;-54
2022/03/01 06:28:03;;;;;;;5.13;3.15;;;;;;;;;;5054039;28;20028;-55
2022/03/01 06:30:29;;;;;;;4.32;3.08;;;;;;;;;;5064246;28;20112;-54
2022/03/01 06:32:55;;;;;;;5.90;3.65;;;;;;;;;;5062293;28;20112;-54
2022/03/01 06:35:21;;;;;;;6.18;3.67;;;;;;;;;;5051328;28;20033;-54
2022/03/01 06:37:47;;;;;;;5.78;3.60;;;;;;;;;;5048946;28;20051;-54
2022/03/01 06:40:14;;;;;;;6.57;3.92;;;;;;;;;;5050397;28;20082;-54
2022/03/01 06:42:40;;;;;;;6.45;3.92;;;;;;;;;;5055633;28;20025;-53
2022/03/01 06:45:06;;;;;;;6.53;4.15;;;;;;;;;;5054058;28;20047;-54
2022/03/01 06:47:33;;;;;;;8.52;4.45;;;;;;;;;;5048505;28;20025;-54
2022/03/01 06:50:00;;;;;;;7.13;4.68;;;;;;;;;;5049021;28;20036;-54
2022/03/01 06:52:26;;;;;;;8.48;4.43;;;;;;;;;;5058806;28;20166;-53
2022/03/01 06:54:52;;;;;;;7.28;4.63;;;;;;;;;;5061375;28;20466;-54
2022/03/01 06:57:18;;;;;;;9.05;5.00;;;;;;;;;;5062360;28;20557;-54
2022/03/01 06:59:45;;;;;;;7.82;4.82;;;;;;;;;;5067692;28;20028;-54
2022/03/01 07:02:11;;;;;;;8.70;4.80;;;;;;;;;;5068790;28;20024;-54
2022/03/01 07:04:37;;;;;;;7.40;4.80;;;;;;;;;;5068621;28;20103;-55
2022/03/01 07:07:05;;;;;;;7.68;4.78;;;;;;;;;;5058639;28;20391;-56
2022/03/01 07:09:31;;;;;;;7.40;4.97;;;;;;;;;;5068190;28;20123;-55
2022/03/01 07:11:57;;;;;;;8.27;5.25;;;;;;;;;;5068725;28;20372;-55
2022/03/01 07:14:23;;;;;;;8.25;5.07;;;;;;;;;;5068125;28;20047;-54
2022/03/01 07:16:49;;;;;;;8.10;4.43;;;;;;;;;;5068463;28;20024;-55
2022/03/01 07:19:16;;;;;;;7.43;4.60;;;;;;;;;;5068233;28;20499;-55
2022/03/01 07:21:42;;;;;;;7.75;4.35;;;;;;;;;;5066840;28;20551;-55
2022/03/01 07:24:08;;;;;;;8.35;4.93;;;;;;;;;;5062733;28;20021;-54
2022/03/01 07:26:34;;;;;;;7.53;4.38;;;;;;;;;;5054931;28;20021;-54
2022/03/01 07:29:00;;;;;;;6.65;4.03;;;;;;;;;;5060340;28;20051;-55
2022/03/01 07:31:26;;;;;;;7.05;4.22;;;;;;;;;;5067659;28;20024;-54
2022/03/01 07:33:53;;;;;;;9.25;4.70;;;;;;;;;;5068369;28;20458;-54
2022/03/01 07:36:19;;;;;;;8.15;4.20;;;;;;;;;;5066053;28;20024;-55
2022/03/01 07:38:45;;;;;;;7.47;4.05;;;;;;;;;;5065952;28;20037;-56
2022/03/01 07:41:11;;;;;;;6.18;3.97;;;;;;;;;;5067348;28;20450;-55
2022/03/01 07:43:37;;;;;;;7.28;4.07;;;;;;;;;;5066868;28;20028;-55
2022/03/01 07:46:05;;;;;;;6.03;4.18;;;;;;;;;;5069398;28;20074;-55
2022/03/01 07:48:32;;;;;;;7.15;4.05;;;;;;;;;;5070583;28;20072;-56
2022/03/01 07:50:59;;;;;;;6.18;3.97;;;;;;;;;;5057908;28;20024;-55
2022/03/01 07:53:26;;;;;;;6.30;4.00;;;;;;;;;;5050696;28;20024;-56
2022/03/01 07:55:52;;;;;;;7.05;4.10;;;;;;;;;;5050946;28;20116;-55
2022/03/01 07:58:18;;;;;;;6.95;4.15;;;;;;;;;;5055691;28;20112;-54
2022/03/01 08:00:44;;;;;;;8.43;4.38;;;;;;;;;;5070240;28;20462;-56
2022/03/01 08:03:10;;;;;;;6.85;4.13;;;;;;;;;;5058287;28;20025;-55
2022/03/01 08:05:36;;;;;;;8.13;4.55;;;;;;;;;;5050266;28;20025;-56
2022/03/01 08:08:02;;;;;;;6.28;4.00;;;;;;;;;;5068215;28;20033;-55
2022/03/01 08:10:28;;;;;;;6.72;4.28;;;;;;;;;;5069401;28;20024;-55
2022/03/01 08:12:54;;;;;;;8.80;5.20;;;;;;;;;;5070204;28;20036;-55
2022/03/01 08:15:20;;;;;;;8.00;5.10;;;;;;;;;;5069294;28;20492;-55
2022/03/01 08:17:51;;;;;;;9.25;5.15;;;;;;;;;;5056927;28;20033;-55
2022/03/01 08:20:18;;;;;;;8.18;4.68;;;;;;;;;;5053966;28;20044;-55
2022/03/01 08:22:45;;;;;;;9.55;6.20;;;;;;;;;;5050768;28;20666;-55
2022/03/01 08:25:11;;;;;;;8.32;5.28;;;;;;;;;;5060092;28;20104;-56
2022/03/01 08:27:38;;;;;;;9.07;5.22;;;;;;;;;;5054626;28;20040;-55
2022/03/01 08:30:04;;;;;;;8.77;5.43;;;;;;;;;;5060381;28;20523;-56
2022/03/01 08:32:31;;;;;;;8.63;4.80;;;;;;;;;;5058807;28;20124;-54
2022/03/01 08:34:58;;;;;;;6.22;4.20;;;;;;;;;;5061925;28;20478;-56
2022/03/01 08:37:24;;;;;;;7.22;4.50;;;;;;;;;;5062201;28;20035;-56
2022/03/01 08:39:50;;;;;;;6.32;4.15;;;;;;;;;;5063952;28;20040;-55
2022/03/01 08:42:16;;;;;;;6.93;4.32;;;;;;;;;;5064850;28;20040;-53
2022/03/01 08:44:42;;;;;;;6.72;4.47;;;;;;;;;;5063421;28;20563;-56
2022/03/01 08:47:08;;;;;;;6.72;4.25;;;;;;;;;;5065363;28;20033;-55
2022/03/01 08:49:34;;;;;;;6.20;4.28;;;;;;;;;;5064654;28;20032;-55
2022/03/01 08:52:00;;;;;;;8.00;4.60;;;;;;;;;;5063808;28;20131;-54
2022/03/01 08:54:26;;;;;;;7.10;4.10;;;;;;;;;;5062615;28;21206;-54
2022/03/01 08:56:53;;;;;;;7.82;5.05;;;;;;;;;;5058087;28;20115;-56
2022/03/01 08:59:19;;;;;;;6.32;3.92;;;;;;;;;;5058049;28;20029;-56
2022/03/01 09:01:45;;;;;;;7.55;4.65;;;;;;;;;;5059246;28;20040;-55
2022/03/01 09:04:11;;;;;;;8.52;5.00;;;;;;;;;;5054995;28;20117;-55
2022/03/01 09:06:37;;;;;;;7.63;4.78;;;;;;;;;;5058921;28;20108;-55
2022/03/01 09:09:03;;;;;;;8.48;4.25;;;;;;;;;;5059234;28;20111;-55
2022/03/01 09:11:30;;;;;;;7.78;3.53;;;;;;;;;;5059215;28;20412;-56
2022/03/01 09:13:56;;;;;;;7.90;4.13;;;;;;;;;;5054692;28;20119;-55
2022/03/01 09:16:23;;;;;;;6.60;4.20;;;;;;;;;;5059101;28;20094;-56
2022/03/01 09:18:49;;;;;;;5.57;3.45;;;;;;;;;;5057499;28;20074;-56
2022/03/01 09:21:15;;;;;;;6.18;3.90;;;;;;;;;;5058105;28;20067;-56
2022/03/01 09:23:44;;;;;;;4.50;3.08;;;;;;;;;;5054772;28;20098;-56
2022/03/01 09:26:10;;;;;;;5.35;3.35;;;;;;;;;;5056278;28;20017;-55
2022/03/01 09:28:37;;;;;;;4.60;3.13;;;;;;;;;;5055555;28;20134;-56
2022/03/01 09:31:04;;;;;;;6.00;3.00;;;;;;;;;;5059408;28;20021;-56
2022/03/01 09:33:30;;;;;;;5.57;3.05;;;;;;;;;;5054814;28;20036;-55
2022/03/01 09:35:57;;;;;;;4.70;3.00;;;;;;;;;;5058802;28;20034;-55
2022/03/01 09:38:24;;;;;;;4.78;3.00;;;;;;;;;;5057551;28;20043;-56
2022/03/01 09:40:50;;;;;;;4.43;2.67;;;;;;;;;;5058138;28;20035;-55
2022/03/01 09:43:17;;;;;;;4.07;2.67;;;;;;;;;;5054783;28;20089;-53
2022/03/01 09:45:44;;;;;;;3.30;2.65;;;;;;;;;;5057144;28;20111;-54
2022/03/01 09:48:10;;;;;;;3.40;2.30;;;;;;;;;;5057956;28;20036;-53
2022/03/01 09:50:38;;;;;;;2.55;2.00;;;;;;;;;;5055710;28;20841;-53
2022/03/01 09:53:04;;;;;;;3.45;2.25;;;;;;;;;;5054957;28;20522;-53
2022/03/01 09:55:30;;;;;;;2.58;2.00;;;;;;;;;;5057714;28;20028;-53
2022/03/01 09:57:56;;;;;;;3.25;2.25;;;;;;;;;;5058388;28;20101;-54
2022/03/01 10:00:23;;;;;;;2.92;1.98;;;;;;;;;;5057955;28;20119;-52
2022/03/01 10:02:53;;;;;;;3.13;2.22;;;;;;;;;;5053795;28;20055;-54
2022/03/01 10:05:30;;;;;;;3.88;2.28;;;;;;;;;;5056978;28;20120;-53
2022/03/01 10:08:05;;;;;;;5.05;2.70;;;;;;;;;;5056750;28;20492;-54
2022/03/01 10:10:36;;;;;;;2.83;2.08;;;;;;;;;;5056870;28;20036;-54
2022/03/01 10:13:02;;;;;;;2.72;2.20;;;;;;;;;;5054627;28;20048;-53
2022/03/01 10:15:29;;;;;;;3.10;1.98;;;;;;;;;;5056822;28;20515;-53
2022/03/01 10:17:55;;;;;;;1.70;1.58;;;;;;;;;;5056972;28;20033;-53
2022/03/01 10:20:22;;;;;;;3.30;1.95;;;;;;;;;;5062129;28;20438;-53
2022/03/01 10:22:57;;;;;;;3.90;2.72;;;;;;;;;;5060684;28;20068;-53
2022/03/01 10:25:24;;;;;;;3.42;2.45;;;;;;;;;;5060283;28;20032;-53
2022/03/01 10:27:52;;;;;;;3.50;2.47;;;;;;;;;;5057482;28;20127;-52
2022/03/01 10:30:25;;;;;;;3.13;2.50;;;;;;;;;;5061282;28;20040;-53
2022/03/01 10:32:52;;;;;;;3.22;2.00;;;;;;;;;;5060956;28;20083;-53
2022/03/01 10:35:18;;;;;;;3.85;2.58;;;;;;;;;;5063588;28;20048;-54
2022/03/01 10:37:44;;;;;;;3.85;2.55;;;;;;;;;;5060756;28;21326;-52
2022/03/01 10:40:13;;;;;;;3.40;2.47;;;;;;;;;;5060907;28;20399;-53
2022/03/01 10:42:39;;;;;;;3.97;2.50;;;;;;;;;;5059374;28;20407;-56
2022/03/01 10:45:06;;;;;;;2.47;1.90;;;;;;;;;;5060528;28;20029;-54
2022/03/01 10:47:32;;;;;;;3.25;2.22;;;;;;;;;;5061185;28;20028;-53
2022/03/01 10:50:03;;;;;;;2.95;1.98;;;;;;;;;;5061113;28;20508;-53
2022/03/01 10:52:36;;;;;;;2.58;1.98;;;;;;;;;;5059930;28;20024;-54
2022/03/01 10:55:04;;;;;;;4.10;2.85;;;;;;;;;;5060651;28;20021;-54
2022/03/01 10:57:30;;;;;;;3.15;2.30;;;;;;;;;;5064277;28;20020;-54
2022/03/01 10:59:56;;;;;;;3.88;2.70;;;;;;;;;;5048965;28;20033;-54
2022/03/01 11:02:22;;;;;;;2.90;2.28;;;;;;;;;;5047159;28;20033;-54
2022/03/01 11:04:49;;;;;;;4.18;2.58;;;;;;;;;;5053021;28;20036;-54
2022/03/01 11:07:16;;;;;;;3.92;2.63;;;;;;;;;;5059825;28;20021;-53
2022/03/01 11:09:44;;;;;;;3.45;2.50;;;;;;;;;;5063179;28;20090;-54
2022/03/01 11:12:11;;;;;;;4.45;2.50;;;;;;;;;;5067429;28;20241;-54
2022/03/01 11:14:43;;;;;;;3.72;2.60;;;;;;;;;;5067158;28;20780;-54
2022/03/01 11:17:15;;;;;;;2.80;2.30;;;;;;;;;;5079652;28;20028;-53
2022/03/01 11:19:53;;;;;;;4.38;2.53;;;;;;;;;;5067956;28;20029;-53
2022/03/01 11:22:37;;;;;;;2.50;2.10;;;;;;;;;;5070998;28;20028;-54
2022/03/01 11:25:04;;;;;;;;;;;;;;;;;;5066605;28;20462;-53
2022/03/01 11:27:30;;;;;;;3.45;2.58;;;;;;;;;;5050520;28;19914;-54
2022/03/01 11:30:07;;;;;;;3.40;2.35;;;;;;;;;;5050379;28;20032;-57
2022/03/01 11:32:38;;;;;;;4.07;2.80;;;;;;;;;;5050749;28;20075;-56
2022/03/01 11:35:05;;;;;;;3.80;2.28;;;;;;;;;;5061678;28;20033;-56
2022/03/01 11:37:31;;;;;;;4.63;2.50;;;;;;;;;;5051440;28;20033;-56
2022/03/01 11:39:59;;;;;;;4.40;2.60;;;;;;;;;;5052377;28;20033;-56
2022/03/01 11:42:26;;;;;;;5.22;3.33;;;;;;;;;;5052795;28;20047;-56
2022/03/01 11:44:53;;;;;;;6.93;3.60;;;;;;;;;;5052214;28;20025;-57
2022/03/01 11:47:32;;;;;;;4.03;2.70;;;;;;;;;;5051686;28;20025;-56
2022/03/01 11:50:09;;;;;;;3.25;2.50;;;;;;;;;;5052059;28;20028;-56
2022/03/01 11:52:35;;;;;;;3.75;2.40;;;;;;;;;;5050685;28;20486;-55
2022/03/01 11:55:01;;;;;;;2.42;1.73;;;;;;;;;;5052120;28;20552;-57
2022/03/01 11:57:29;;;;;;;2.88;2.03;;;;;;;;;;5051462;28;20040;-56
2022/03/01 11:59:59;;;;;;;4.05;2.70;;;;;;;;;;5050509;28;20017;-53
2022/03/01 12:02:25;;;;;;;3.65;2.20;;;;;;;;;;5058853;28;20032;-53
2022/03/01 12:04:53;;;;;;;4.85;2.85;;;;;;;;;;5051751;28;20021;-53
2022/03/01 12:07:20;;;;;;;4.18;2.90;;;;;;;;;;5069298;28;20115;-54
2022/03/01 12:09:55;;;;;;;6.03;3.75;;;;;;;;;;5054181;28;20757;-53
2022/03/01 12:12:30;;;;;;;4.53;2.80;;;;;;;;;;5070122;28;20033;-54
2022/03/01 12:14:56;;;;;;;4.32;2.70;;;;;;;;;;5069106;28;20024;-53
2022/03/01 12:17:22;;;;;;;3.97;2.65;;;;;;;;;;5070142;28;20415;-53
2022/03/01 12:19:58;;;;;;;6.22;3.53;;;;;;;;;;5070586;28;20103;-54
2022/03/01 12:22:24;;;;;;;4.88;2.95;;;;;;;;;;5070212;28;20023;-53
2022/03/01 12:24:50;;;;;;;6.72;3.30;;;;;;;;;;5054612;28;20528;-53
2022/03/01 12:27:18;;;;;;;7.35;4.03;;;;;;;;;;5055313;28;20131;-53
2022/03/01 12:29:47;;;;;;;6.82;4.00;;;;;;;;;;5054319;28;20048;-53
2022/03/01 12:32:17;;;;;;;7.32;4.50;;;;;;;;;;5070092;28;20036;-52
2022/03/01 12:34:43;;;;;;;5.82;3.75;;;;;;;;;;5062610;28;20024;-53
2022/03/01 12:37:10;;;;;;;5.13;3.28;;;;;;;;;;5055561;28;20099;-53
2022/03/01 12:39:37;;;;;;;5.38;3.03;;;;;;;;;;5049930;28;20125;-53
2022/03/01 12:42:06;;;;;;;4.07;3.10;;;;;;;;;;5061545;28;20029;-55
2022/03/01 12:44:33;;;;;;;5.32;3.60;;;;;;;;;;5069380;28;20032;-55
2022/03/01 12:47:00;;;;;;;5.57;3.88;;;;;;;;;;5069916;28;20074;-54
2022/03/01 12:49:26;;;;;;;4.25;3.05;;;;;;;;;;5069672;28;20843;-53
2022/03/01 12:51:54;;;;;;;4.47;2.95;;;;;;;;;;5064644;28;20036;-54
2022/03/01 12:54:21;;;;;;;4.53;2.63;;;;;;;;;;5057619;28;20037;-54
2022/03/01 12:56:52;;;;;;;5.07;3.58;;;;;;;;;;5069311;28;20036;-53
2022/03/01 12:59:19;;;;;;;3.97;2.70;;;;;;;;;;5068887;28;20093;-55
2022/03/01 13:01:46;;;;;;;3.95;3.10;;;;;;;;;;5055666;28;20036;-55
2022/03/01 13:04:13;;;;;;;4.30;3.03;;;;;;;;;;5051752;28;20055;-54
2022/03/01 13:06:40;;;;;;;4.60;3.13;;;;;;;;;;5064019;28;20055;-54
2022/03/01 13:09:07;;;;;;;3.40;2.63;;;;;;;;;;5060906;28;20140;-54
2022/03/01 13:11:33;;;;;;;4.25;3.20;;;;;;;;;;5053383;28;20059;-55
2022/03/01 13:14:00;;;;;;;4.20;3.25;;;;;;;;;;5063095;28;20097;-55
2022/03/01 13:16:28;;;;;;;4.43;3.20;;;;;;;;;;5056066;28;20025;-55
2022/03/01 13:18:55;;;;;;;3.80;2.90;;;;;;;;;;5064132;28;20400;-55
2022/03/01 13:21:23;;;;;;;3.75;2.83;;;;;;;;;;5055343;28;20033;-55
2022/03/01 13:23:50;;;;;;;4.90;2.92;;;;;;;;;;5048983;28;20032;-55
2022/03/01 13:26:16;;;;;;;4.60;3.03;;;;;;;;;;5066570;28;20056;-55
2022/03/01 13:28:42;;;;;;;5.20;3.55;;;;;;;;;;5063259;28;20526;-55
2022/03/01 13:31:19;;;;;;;5.80;4.03;;;;;;;;;;5054115;28;20418;-54
2022/03/01 13:33:45;;;;;;;5.90;4.32;;;;;;;;;;5049961;28;20077;-55
2022/03/01 13:36:12;;;;;;;5.40;3.63;;;;;;;;;;5053452;28;20036;-55
2022/03/01 13:38:39;;;;;;;5.85;3.40;;;;;;;;;;5055529;28;20024;-55
2022/03/01 13:41:05;;;;;;;5.57;3.53;;;;;;;;;;5046914;28;20036;-51
2022/03/01 13:43:31;;;;;;;4.85;3.40;;;;;;;;;;5046210;28;20017;-52
2022/03/01 13:45:58;;;;;;;5.35;3.17;;;;;;;;;;5058759;28;20522;-51
2022/03/01 13:48:26;;;;;;;4.82;3.17;;;;;;;;;;5062541;28;20094;-52
2022/03/01 13:50:52;;;;;;;5.82;3.40;;;;;;;;;;5049183;28;20133;-50
2022/03/01 13:53:19;;;;;;;4.93;3.45;;;;;;;;;;5052712;28;20036;-49
2022/03/01 13:55:47;;;;;;;5.32;3.63;;;;;;;;;;5048219;28;20029;-52
2022/03/01 13:58:15;;;;;;;4.28;2.88;;;;;;;;;;5056235;28;20033;-52
2022/03/01 14:00:46;;;;;;;3.85;3.00;;;;;;;;;;5058659;28;20115;-49
2022/03/01 14:03:16;;;;;;;3.60;2.92;;;;;;;;;;5066808;28;20441;-52
2022/03/01 14:05:48;;;;;;;3.60;2.70;;;;;;;;;;5066490;28;20427;-50
2022/03/01 14:08:16;;;;;;;6.32;3.30;;;;;;;;;;5064488;28;20534;-51
2022/03/01 14:10:45;;;;;;;6.68;3.83;;;;;;;;;;5066720;28;20407;-52
2022/03/01 14:13:19;;;;;;;5.57;3.53;;;;;;;;;;5059425;28;20036;-52
2022/03/01 14:15:46;;;;;;;;;;;;;;;;;;5062349;28;20088;-49
2022/03/01 14:18:12;;;;;;;7.60;4.35;;;;;;;;;;5049084;28;20010;-51
2022/03/01 14:20:39;;;;;;;6.20;4.20;;;;;;;;;;5044205;28;20159;-52
2022/03/01 14:23:06;;;;;;;6.80;4.70;;;;;;;;;;5046724;28;20553;-51
2022/03/01 14:25:32;;;;;;;6.63;5.00;;;;;;;;;;5045899;28;20021;-52
2022/03/01 14:27:59;;;;;;;5.85;4.05;;;;;;;;;;5046299;28;20025;-52
2022/03/01 14:30:25;;;;;;;6.10;4.45;;;;;;;;;;5045770;28;20020;-52
2022/03/01 14:32:54;;;;;;;4.60;3.47;;;;;;;;;;5058487;28;20058;-49
2022/03/01 14:35:20;;;;;;;6.10;4.45;;;;;;;;;;5066073;28;20040;-53
2022/03/01 14:37:46;;;;;;;6.13;3.95;;;;;;;;;;5061466;28;20017;-52
2022/03/01 14:40:12;;;;;;;4.35;3.60;;;;;;;;;;5060513;28;20583;-53
2022/03/01 14:42:39;;;;;;;4.50;3.40;;;;;;;;;;5065708;28;20372;-52